Marianne — VRFM5 — position and weather

sailwx.info

Track history (hours):
 
Tides and Currents Weather Stations Pressure Air Temp Water Temp Dewpoint Dewpoint Depression Visibility Wind Speed Wind Dir Waves Ship Positions

Marianne

Last reported at 2016-May-03 14:32 UTC. Time now 2016-May-03 16:22 UTC.
Position N 49°57' W 004°40'.

Length 97 m; draft 5.5 m.

Type: Ship (hazmat cat B). MMSI: 477560836.

Date/timePositionNaut miles runAvg speedWind from/ knotsBaromVisibWave heightAir tempDewpointWater temp
2016-May-03 14:32N 49°57' W 004°40'1111.7
2016-May-03 13:33N 49°58' W 004°22'1212.2
2016-May-03 12:33N 50°00' W 004°03'1313.1
2016-May-03 11:33N 50°03' W 003°44'1414.1
2016-May-03 10:34N 50°06' W 003°22'1414.3
2016-May-03 09:34N 50°11' W 003°01'1413.9
2016-May-03 08:33N 50°15' W 002°41'5811.3
2016-May-03 03:28N 50°31' W 001°14'910.3
2016-May-03 02:33N 50°34' W 001°00'1110.9
2016-May-03 01:34N 50°45' W 001°06'1010.1
2016-May-03 00:33N 50°50' W 001°19'0 0.1
2016-May-02 19:23N 50°50' W 001°20'0 0.0
2016-May-01 00:17N 50°50' W 001°20'0 0.0
2016-Apr-30 15:29N 50°50' W 001°20'0 0.0
2016-Apr-30 14:29N 50°50' W 001°20'0 0.0
2016-Apr-30 13:32N 50°50' W 001°20'0 0.0
2016-Apr-30 12:32N 50°50' W 001°20'0 0.0
2016-Apr-30 11:32N 50°50' W 001°20'0 0.0
2016-Apr-30 10:29N 50°50' W 001°20'0 0.0
2016-Apr-30 09:29N 50°50' W 001°20'1 1.4
2016-Apr-30 08:33N 50°49' W 001°18'1111.1
2016-Apr-30 07:34N 50°44' W 001°03'7 7.5
2016-Apr-30 06:34N 50°37' W 000°57'1414.4
2016-Apr-30 05:34N 50°35' W 000°35'1414.0
2016-Apr-30 04:33N 50°33' W 000°13'1313.2
2016-Apr-30 03:34N 50°33' E 000°08'1312.8
2016-Apr-30 02:34N 50°36' E 000°27'3913.1
2016-Apr-29 23:34N 50°59' E 001°18'1414.5
2016-Apr-29 22:33N 51°09' E 001°35'1313.3
2016-Apr-29 21:33N 51°18' E 001°50'1110.6
2016-Apr-29 20:33N 51°24' E 002°05'1211.3
2016-Apr-29 19:32N 51°22' E 002°23'1110.8
2016-Apr-29 18:33N 51°23' E 002°40'8 8.4
2016-Apr-29 17:33N 51°23' E 002°53'1010.2
2016-Apr-29 16:33N 51°24' E 003°10'10 9.9
2016-Apr-29 15:33N 51°25' E 003°25'10 9.6
2016-Apr-29 14:33N 51°25' E 003°41'5 4.7
2016-Apr-29 13:27N 51°21' E 003°46'0 0.0
2016-Apr-29 12:16N 51°21' E 003°46'0 0.0
2016-Apr-29 11:28N 51°21' E 003°46'0 0.0
2016-Apr-29 09:28N 51°21' E 003°46'0 0.0
2016-Apr-29 08:31N 51°21' E 003°46'0 0.0
2016-Apr-29 07:28N 51°21' E 003°46'0 0.0
2016-Apr-29 06:28N 51°21' E 003°46'0 0.0
2016-Apr-29 05:22N 51°21' E 003°46'0 0.0
2016-Apr-29 04:31N 51°21' E 003°46'0 0.0
2016-Apr-29 03:31N 51°21' E 003°46'0 0.0
2016-Apr-29 02:28N 51°21' E 003°46'0 0.0
2016-Apr-29 01:28N 51°21' E 003°46'0 0.0
2016-Apr-29 00:16N 51°21' E 003°46'0 0.0
2016-Apr-28 23:19N 51°21' E 003°46'0 0.0
2016-Apr-28 22:31N 51°21' E 003°46'0 0.0
2016-Apr-28 21:28N 51°21' E 003°46'0 0.0
2016-Apr-28 20:25N 51°21' E 003°46'0 0.0
2016-Apr-28 19:28N 51°21' E 003°46'0 0.0
2016-Apr-28 18:28N 51°21' E 003°46'0 0.0
2016-Apr-28 17:28N 51°21' E 003°46'0 0.0
2016-Apr-28 16:25N 51°21' E 003°46'0 0.0
2016-Apr-28 15:31N 51°21' E 003°46'0 0.0
2016-Apr-28 14:31N 51°21' E 003°46'0 0.0
2016-Apr-28 13:28N 51°21' E 003°46'2 1.7
2016-Apr-28 12:33N 51°22' E 003°44'1211.7
2016-Apr-28 11:33N 51°29' E 003°30'1212.1
2016-Apr-28 10:32N 51°40' E 003°19'14411.9
2016-Apr-27 22:25N 53°53' E 004°51'1112.3
2016-Apr-27 21:33N 54°03' E 004°56'1312.4
2016-Apr-27 20:32N 54°14' E 005°07'14313.0
2016-Apr-27 09:32N 56°16' E 007°15'1312.9
2016-Apr-27 08:33N 56°27' E 007°26'13212.6
2016-Apr-26 22:03N 57°49' E 010°37'612.5
2016-Apr-26 21:33N 57°47' E 010°48'1313.4
2016-Apr-26 20:33N 57°38' E 011°08'1313.3
2016-Apr-26 19:34N 57°29' E 011°25'1313.3
2016-Apr-26 18:33N 57°16' E 011°34'1413.5
2016-Apr-26 17:29N 57°03' E 011°44'1313.4
2016-Apr-26 16:33N 56°51' E 011°52'1212.5
2016-Apr-26 15:33N 56°39' E 011°48'  
Track history (hours):
 
Tides and Currents Weather Stations Pressure Air Temp Water Temp Dewpoint Dewpoint Depression Visibility Wind Speed Wind Dir Waves Ship Positions

Marianne

Last reported at 2016-May-03 14:32 UTC. Time now 2016-May-03 16:22 UTC.
Position N 49°57' W 004°40'.

Length 97 m; draft 5.5 m.

Type: Ship (hazmat cat B). MMSI: 477560836.

Date/timePositionNaut miles runAvg speedWind from/ knotsBaromVisibWave heightAir tempDewpointWater temp
2016-May-03 14:32N 49°57' W 004°40'1111.7
2016-May-03 13:33N 49°58' W 004°22'1212.2
2016-May-03 12:33N 50°00' W 004°03'1313.1
2016-May-03 11:33N 50°03' W 003°44'1414.1
2016-May-03 10:34N 50°06' W 003°22'1414.3
2016-May-03 09:34N 50°11' W 003°01'1413.9
2016-May-03 08:33N 50°15' W 002°41'5811.3
2016-May-03 03:28N 50°31' W 001°14'910.3
2016-May-03 02:33N 50°34' W 001°00'1110.9
2016-May-03 01:34N 50°45' W 001°06'1010.1
2016-May-03 00:33N 50°50' W 001°19'0 0.1
2016-May-02 19:23N 50°50' W 001°20'0 0.0
2016-May-01 00:17N 50°50' W 001°20'0 0.0
2016-Apr-30 15:29N 50°50' W 001°20'0 0.0
2016-Apr-30 14:29N 50°50' W 001°20'0 0.0
2016-Apr-30 13:32N 50°50' W 001°20'0 0.0
2016-Apr-30 12:32N 50°50' W 001°20'0 0.0
2016-Apr-30 11:32N 50°50' W 001°20'0 0.0
2016-Apr-30 10:29N 50°50' W 001°20'0 0.0
2016-Apr-30 09:29N 50°50' W 001°20'1 1.4
2016-Apr-30 08:33N 50°49' W 001°18'1111.1
2016-Apr-30 07:34N 50°44' W 001°03'7 7.5
2016-Apr-30 06:34N 50°37' W 000°57'1414.4
2016-Apr-30 05:34N 50°35' W 000°35'1414.0
2016-Apr-30 04:33N 50°33' W 000°13'1313.2
2016-Apr-30 03:34N 50°33' E 000°08'1312.8
2016-Apr-30 02:34N 50°36' E 000°27'3913.1
2016-Apr-29 23:34N 50°59' E 001°18'1414.5
2016-Apr-29 22:33N 51°09' E 001°35'1313.3
2016-Apr-29 21:33N 51°18' E 001°50'1110.6
2016-Apr-29 20:33N 51°24' E 002°05'1211.3
2016-Apr-29 19:32N 51°22' E 002°23'1110.8
2016-Apr-29 18:33N 51°23' E 002°40'8 8.4
2016-Apr-29 17:33N 51°23' E 002°53'1010.2
2016-Apr-29 16:33N 51°24' E 003°10'10 9.9
2016-Apr-29 15:33N 51°25' E 003°25'10 9.6
2016-Apr-29 14:33N 51°25' E 003°41'5 4.7
2016-Apr-29 13:27N 51°21' E 003°46'0 0.0
2016-Apr-29 12:16N 51°21' E 003°46'0 0.0
2016-Apr-29 11:28N 51°21' E 003°46'0 0.0
2016-Apr-29 09:28N 51°21' E 003°46'0 0.0
2016-Apr-29 08:31N 51°21' E 003°46'0 0.0
2016-Apr-29 07:28N 51°21' E 003°46'0 0.0
2016-Apr-29 06:28N 51°21' E 003°46'0 0.0
2016-Apr-29 05:22N 51°21' E 003°46'0 0.0
2016-Apr-29 04:31N 51°21' E 003°46'0 0.0
2016-Apr-29 03:31N 51°21' E 003°46'0 0.0
2016-Apr-29 02:28N 51°21' E 003°46'0 0.0
2016-Apr-29 01:28N 51°21' E 003°46'0 0.0
2016-Apr-29 00:16N 51°21' E 003°46'0 0.0
2016-Apr-28 23:19N 51°21' E 003°46'0 0.0
2016-Apr-28 22:31N 51°21' E 003°46'0 0.0
2016-Apr-28 21:28N 51°21' E 003°46'0 0.0
2016-Apr-28 20:25N 51°21' E 003°46'0 0.0
2016-Apr-28 19:28N 51°21' E 003°46'0 0.0
2016-Apr-28 18:28N 51°21' E 003°46'0 0.0
2016-Apr-28 17:28N 51°21' E 003°46'0 0.0
2016-Apr-28 16:25N 51°21' E 003°46'0 0.0
2016-Apr-28 15:31N 51°21' E 003°46'0 0.0
2016-Apr-28 14:31N 51°21' E 003°46'0 0.0
2016-Apr-28 13:28N 51°21' E 003°46'2 1.7
2016-Apr-28 12:33N 51°22' E 003°44'1211.7
2016-Apr-28 11:33N 51°29' E 003°30'1212.1
2016-Apr-28 10:32N 51°40' E 003°19'14411.9
2016-Apr-27 22:25N 53°53' E 004°51'1112.3
2016-Apr-27 21:33N 54°03' E 004°56'1312.4
2016-Apr-27 20:32N 54°14' E 005°07'14313.0
2016-Apr-27 09:32N 56°16' E 007°15'1312.9
2016-Apr-27 08:33N 56°27' E 007°26'13212.6
2016-Apr-26 22:03N 57°49' E 010°37'612.5
2016-Apr-26 21:33N 57°47' E 010°48'1313.4
2016-Apr-26 20:33N 57°38' E 011°08'1313.3
2016-Apr-26 19:34N 57°29' E 011°25'1313.3
2016-Apr-26 18:33N 57°16' E 011°34'1413.5
2016-Apr-26 17:29N 57°03' E 011°44'1313.4
2016-Apr-26 16:33N 56°51' E 011°52'1212.5
2016-Apr-26 15:33N 56°39' E 011°48'  

Dump ship's entire track history